ADDS METAR Data INFO
IDs: Format: Raw Decoded Include TAF

Data at: 0702 UTC 19 Oct 2017

KJYG 190655Z AUTO 22005KT 10SM CLR 05/01 A3006 RMK AO2
KJYG 190635Z AUTO 20003KT 10SM CLR 04/01 A3006 RMK AO2
KJYG 190615Z AUTO 00000KT 10SM CLR 05/01 A3006 RMK AO2
KJYG 190555Z AUTO 00000KT 10SM CLR 06/01 A3006 RMK AO2
KJYG 190535Z AUTO 00000KT 10SM CLR 05/01 A3006 RMK AO2
KJYG 190515Z AUTO 25004KT 10SM CLR 06/01 A3006 RMK AO2
KJYG 190455Z AUTO 26004KT 10SM CLR 07/M01 A3006 RMK AO2
KJYG 190435Z AUTO 26003KT 10SM CLR 06/00 A3006 RMK AO2
KJYG 190415Z AUTO 26004KT 10SM CLR 07/00 A3006 RMK AO2
KJYG 190355Z AUTO 26003KT 10SM CLR 07/00 A3006 RMK AO2
KJYG 190335Z AUTO 29006KT 10SM CLR 06/01 A3006 RMK AO2
KJYG 190315Z AUTO 30005KT 10SM CLR 05/01 A3006 RMK AO2
KJYG 190255Z AUTO 30006KT 10SM CLR 05/01 A3006 RMK AO2
KJYG 190235Z AUTO 30006KT 10SM CLR 07/M01 A3005 RMK AO2
KJYG 190215Z AUTO 30005KT 10SM CLR 08/00 A3004 RMK AO2
KJYG 190155Z AUTO 00000KT 10SM CLR 08/00 A3004 RMK AO2
KJYG 190135Z AUTO 29003KT 10SM CLR 08/00 A3004 RMK AO2
KJYG 190115Z AUTO 29005KT 10SM CLR 09/M01 A3003 RMK AO2
KJYG 190055Z AUTO 29008KT 10SM CLR 12/M02 A3003 RMK AO2
KJYG 190035Z AUTO 29008KT 10SM CLR 12/M01 A3002 RMK AO2
KJYG 190015Z AUTO 29008KT 10SM CLR 13/00 A3002 RMK AO2
KJYG 182355Z AUTO 28007KT 10SM CLR 15/00 A3000 RMK AO2
KJYG 182334Z AUTO 30005KT 10SM CLR 16/M02 A2999 RMK AO2
KJYG 182315Z AUTO 30003KT 10SM CLR 17/M01 A2998 RMK AO2
KJYG 182255Z AUTO 32006KT 10SM CLR 18/M02 A2998 RMK AO2
KJYG 182235Z AUTO 32009KT 10SM CLR 20/M02 A2997 RMK AO2
KJYG 182215Z AUTO 31009KT 10SM CLR 21/M01 A2996 RMK AO2
KJYG 182155Z AUTO 31010KT 10SM CLR 21/00 A2995 RMK AO2
KJYG 182135Z AUTO 30012G16KT 10SM CLR 21/00 A2994 RMK AO2
KJYG 182115Z AUTO 32010KT 10SM CLR 23/01 A2993 RMK AO2
KJYG 182055Z AUTO 32006KT 10SM CLR 23/01 A2992 RMK AO2
KJYG 182035Z AUTO 31011G16KT 10SM CLR 23/01 A2991 RMK AO2
KJYG 182015Z AUTO 33011G16KT 10SM CLR 23/01 A2991 RMK AO2
KJYG 181955Z AUTO 34009G14KT 10SM CLR 23/01 A2990 RMK AO2
KJYG 181935Z AUTO 33010G18KT 10SM CLR 23/02 A2990 RMK AO2
KJYG 181915Z AUTO 31015KT 10SM CLR 22/01 A2990 RMK AO2
KJYG 181855Z AUTO 32012G22KT 10SM CLR 22/03 A2990 RMK AO2
KJYG 181835Z AUTO 31016G23KT 10SM CLR 21/02 A2990 RMK AO2
KJYG 181815Z AUTO 32017G20KT 10SM CLR 21/03 A2990 RMK AO2
KJYG 181755Z AUTO 28014G20KT 10SM CLR 21/05 A2989 RMK AO2
KJYG 181735Z AUTO 29015G19KT 10SM CLR 21/06 A2989 RMK AO2
KJYG 181715Z AUTO 28012G17KT 10SM CLR 19/06 A2988 RMK AO2
KJYG 181655Z AUTO 24012KT 10SM CLR 19/08 A2987 RMK AO2
KJYG 181635Z AUTO 25011KT 10SM CLR 20/08 A2987 RMK AO2
KJYG 181615Z AUTO 23011G15KT 10SM CLR 18/09 A2986 RMK AO2
KJYG 181555Z AUTO 18014G19KT 10SM CLR 16/08 A2982 RMK AO2
KJYG 181535Z AUTO 18015KT 10SM CLR 14/08 A2981 RMK AO2
KJYG 181515Z AUTO 18014KT 10SM CLR 14/08 A2982 RMK AO2
KJYG 181454Z AUTO 17011KT 10SM CLR 13/08 A2981 RMK AO2
KJYG 181435Z AUTO 17014G17KT 10SM CLR 12/08 A2981 RMK AO2
KJYG 181415Z AUTO 18011KT 10SM CLR 11/08 A2981 RMK AO2
KJYG 181355Z AUTO 17011G17KT 10SM CLR 11/07 A2981 RMK AO2
KJYG 181335Z AUTO 16011KT 10SM CLR 09/07 A2980 RMK AO2
KJYG 181315Z AUTO 16011KT 10SM CLR 08/07 A2981 RMK AO2
KJYG 181255Z AUTO 16011KT 10SM CLR 08/06 A2981 RMK AO2
KJYG 181235Z AUTO 16011KT 10SM CLR 08/06 A2981 RMK AO2
KJYG 181215Z AUTO 16011KT 10SM CLR 08/06 A2982 RMK AO2
KJYG 181155Z AUTO 16011KT 10SM CLR 08/06 A2984 RMK AO2
KJYG 181135Z AUTO 16010KT 10SM CLR 08/06 A2984 RMK AO2
KJYG 181115Z AUTO 16010KT 10SM CLR 08/06 A2985 RMK AO2
KJYG 181055Z AUTO 16009KT 10SM CLR 08/06 A2986 RMK AO2
KJYG 181035Z AUTO 16010KT 10SM CLR 08/06 A2985 RMK AO2
KJYG 181014Z AUTO 16009KT 10SM CLR 08/06 A2985 RMK AO2
KJYG 180955Z AUTO 16008KT 10SM CLR 08/06 A2986 RMK AO2
KJYG 180935Z AUTO 17006KT 10SM CLR 08/06 A2986 RMK AO2
KJYG 180915Z AUTO 17006KT 10SM CLR 09/07 A2986 RMK AO2
KJYG 180855Z AUTO 16009KT 10SM CLR 09/07 A2985 RMK AO2
KJYG 180835Z AUTO 16008KT 10SM CLR 09/07 A2986 RMK AO2
KJYG 180815Z AUTO 16007KT 10SM CLR 09/07 A2987 RMK AO2
KJYG 180755Z AUTO 16008KT 10SM CLR 09/07 A2988 RMK AO2
KJYG 180735Z AUTO 16008KT 10SM CLR 09/07 A2988 RMK AO2
KJYG 180715Z AUTO 16007KT 10SM CLR 10/07 A2989 RMK AO2
KJYG 180655Z AUTO 17007KT 10SM CLR 11/07 A2989 RMK AO2
KJYG 180635Z AUTO 18008KT 10SM CLR 11/07 A2990 RMK AO2
KJYG 180615Z AUTO 17008KT 10SM CLR 11/07 A2990 RMK AO2
KJYG 180555Z AUTO 18007KT 10SM CLR 12/07 A2991 RMK AO2
KJYG 180535Z AUTO 18008KT 10SM CLR 12/07 A2992 RMK AO2
KJYG 180515Z AUTO 18008KT 10SM CLR 12/07 A2992 RMK AO2
KJYG 180455Z AUTO 18007KT 10SM CLR 12/07 A2993 RMK AO2
KJYG 180435Z AUTO 18007KT 10SM CLR 13/07 A2993 RMK AO2
KJYG 180415Z AUTO 18007KT 10SM CLR 13/07 A2994 RMK AO2
KJYG 180355Z AUTO 18009KT 10SM CLR 13/07 A2994 RMK AO2
KJYG 180335Z AUTO 18008KT 10SM CLR 14/08 A2994 RMK AO2
KJYG 180315Z AUTO 18009KT 10SM CLR 14/07 A2994 RMK AO2
KJYG 180255Z AUTO 18009KT 10SM CLR 14/07 A2994 RMK AO2
KJYG 180235Z AUTO 17008KT 7SM CLR 14/07 A2994 RMK AO2
KJYG 180215Z AUTO 17008KT 10SM CLR 14/06 A2993 RMK AO2
KJYG 180155Z AUTO 16009KT 10SM CLR 15/05 A2993 RMK AO2
KJYG 180135Z AUTO 16007KT 7SM CLR 15/04 A2994 RMK AO2
KJYG 180115Z AUTO 16005KT 10SM CLR 16/03 A2994 RMK AO2
KJYG 180055Z AUTO 16007KT 10SM CLR 17/03 A2994 RMK AO2
KJYG 180035Z AUTO 15005KT 10SM CLR 16/04 A2995 RMK AO2
KJYG 180015Z AUTO 17004KT 10SM CLR 17/03 A2995 RMK AO2
KJYG 172355Z AUTO 16004KT 10SM CLR 18/02 A2995 RMK AO2
KJYG 172335Z AUTO 18004KT 10SM CLR 19/01 A2994 RMK AO2
KJYG 172315Z AUTO 19003KT 10SM CLR 21/02 A2994 RMK AO2
KJYG 172255Z AUTO 20003KT 10SM CLR 22/02 A2994 RMK AO2
KJYG 172235Z AUTO 22005KT 10SM CLR 23/02 A2994 RMK AO2
KJYG 172215Z AUTO 21005KT 10SM CLR 24/01 A2994 RMK AO2
KJYG 172155Z AUTO 22009KT 10SM CLR 24/01 A2994 RMK AO2
KJYG 172135Z AUTO 23007KT 194V254 10SM CLR 24/01 A2995 RMK AO2
KJYG 172115Z AUTO 25008G14KT 10SM CLR 24/02 A2995 RMK AO2
KJYG 172055Z AUTO 22007KT 10SM CLR 25/02 A2995 RMK AO2
KJYG 172035Z AUTO 23010KT 10SM CLR 25/02 A2995 RMK AO2
KJYG 172015Z AUTO 24010G14KT 10SM CLR 25/02 A2996 RMK AO2
KJYG 171955Z AUTO 20009KT 10SM CLR 25/02 A2996 RMK AO2
KJYG 171935Z AUTO 19010G14KT 10SM CLR 24/02 A2998 RMK AO2
KJYG 171915Z AUTO 20007KT 10SM CLR 24/03 A2999 RMK AO2